sensor_id;sensor_type;location;lat;lon;timestamp;temperature;humidity
23540;DHT22;11947;50.810;4.394;2023-03-26T00:01:16;9.60;99.90
23540;DHT22;11947;50.810;4.394;2023-03-26T00:03:42;9.80;99.90
23540;DHT22;11947;50.810;4.394;2023-03-26T00:06:13;9.80;99.90
23540;DHT22;11947;50.810;4.394;2023-03-26T00:08:42;9.60;99.90
23540;DHT22;11947;50.810;4.394;2023-03-26T00:11:10;9.50;99.90
23540;DHT22;11947;50.810;4.394;2023-03-26T00:13:37;9.50;99.90
23540;DHT22;11947;50.810;4.394;2023-03-26T00:16:03;9.50;99.90
23540;DHT22;11947;50.810;4.394;2023-03-26T00:18:29;9.70;99.90
23540;DHT22;11947;50.810;4.394;2023-03-26T00:20:57;9.70;99.90
23540;DHT22;11947;50.810;4.394;2023-03-26T00:23:23;9.70;99.90
23540;DHT22;11947;50.810;4.394;2023-03-26T00:25:50;9.80;99.90
23540;DHT22;11947;50.810;4.394;2023-03-26T00:28:16;9.70;99.90
23540;DHT22;11947;50.810;4.394;2023-03-26T00:30:46;9.80;99.90
23540;DHT22;11947;50.810;4.394;2023-03-26T00:33:12;9.80;99.90
23540;DHT22;11947;50.810;4.394;2023-03-26T00:35:42;9.70;99.90
23540;DHT22;11947;50.810;4.394;2023-03-26T00:38:12;9.60;99.90
23540;DHT22;11947;50.810;4.394;2023-03-26T00:40:38;9.70;99.90
23540;DHT22;11947;50.810;4.394;2023-03-26T00:43:09;9.70;99.90
23540;DHT22;11947;50.810;4.394;2023-03-26T00:45:47;9.60;99.90
23540;DHT22;11947;50.810;4.394;2023-03-26T00:48:14;9.70;99.90
23540;DHT22;11947;50.810;4.394;2023-03-26T00:50:40;9.80;99.90
23540;DHT22;11947;50.810;4.394;2023-03-26T00:53:06;9.60;99.90
23540;DHT22;11947;50.810;4.394;2023-03-26T00:55:34;9.60;99.90
23540;DHT22;11947;50.810;4.394;2023-03-26T00:58:00;9.70;99.90
23540;DHT22;11947;50.810;4.394;2023-03-26T01:00:33;9.50;99.90
23540;DHT22;11947;50.810;4.394;2023-03-26T01:03:03;9.40;99.90
23540;DHT22;11947;50.810;4.394;2023-03-26T01:13:49;9.50;99.90
23540;DHT22;11947;50.810;4.394;2023-03-26T01:18:53;9.40;99.90
23540;DHT22;11947;50.810;4.394;2023-03-26T01:21:24;9.40;99.90
23540;DHT22;11947;50.810;4.394;2023-03-26T01:24:05;9.30;99.90
23540;DHT22;11947;50.810;4.394;2023-03-26T01:40:27;9.20;99.90
23540;DHT22;11947;50.810;4.394;2023-03-26T01:43:20;9.20;99.90
23540;DHT22;11947;50.810;4.394;2023-03-26T01:45:50;9.00;99.90
23540;DHT22;11947;50.810;4.394;2023-03-26T01:48:16;9.00;99.90
23540;DHT22;11947;50.810;4.394;2023-03-26T01:50:43;8.90;99.90
23540;DHT22;11947;50.810;4.394;2023-03-26T01:53:10;8.80;99.90
23540;DHT22;11947;50.810;4.394;2023-03-26T01:58:32;8.90;99.90
23540;DHT22;11947;50.810;4.394;2023-03-26T02:03:58;9.00;99.90
23540;DHT22;11947;50.810;4.394;2023-03-26T02:06:43;9.00;99.90
23540;DHT22;11947;50.810;4.394;2023-03-26T02:09:22;9.10;99.90
23540;DHT22;11947;50.810;4.394;2023-03-26T02:11:49;9.10;99.90
23540;DHT22;11947;50.810;4.394;2023-03-26T02:14:15;9.20;99.90
23540;DHT22;11947;50.810;4.394;2023-03-26T02:16:41;9.20;99.90
23540;DHT22;11947;50.810;4.394;2023-03-26T02:19:11;9.30;99.90
23540;DHT22;11947;50.810;4.394;2023-03-26T02:21:40;9.20;99.90
23540;DHT22;11947;50.810;4.394;2023-03-26T02:24:06;9.00;99.90
23540;DHT22;11947;50.810;4.394;2023-03-26T02:26:34;9.10;99.90
23540;DHT22;11947;50.810;4.394;2023-03-26T02:29:00;9.00;99.90
23540;DHT22;11947;50.810;4.394;2023-03-26T02:31:26;8.90;99.90
23540;DHT22;11947;50.810;4.394;2023-03-26T02:33:52;9.00;99.90
23540;DHT22;11947;50.810;4.394;2023-03-26T02:36:20;9.10;99.90
23540;DHT22;11947;50.810;4.394;2023-03-26T02:38:49;9.00;99.90
23540;DHT22;11947;50.810;4.394;2023-03-26T02:41:16;8.80;99.90
23540;DHT22;11947;50.810;4.394;2023-03-26T02:43:42;8.70;99.90
23540;DHT22;11947;50.810;4.394;2023-03-26T02:46:07;8.70;99.90
23540;DHT22;11947;50.810;4.394;2023-03-26T02:48:33;8.90;99.90
23540;DHT22;11947;50.810;4.394;2023-03-26T02:51:00;8.90;99.90
23540;DHT22;11947;50.810;4.394;2023-03-26T02:53:25;8.90;99.90
23540;DHT22;11947;50.810;4.394;2023-03-26T02:55:54;9.00;99.90
23540;DHT22;11947;50.810;4.394;2023-03-26T02:58:20;9.20;99.90
23540;DHT22;11947;50.810;4.394;2023-03-26T03:00:45;9.30;99.90
23540;DHT22;11947;50.810;4.394;2023-03-26T03:03:12;9.00;99.90
23540;DHT22;11947;50.810;4.394;2023-03-26T03:05:38;9.10;99.90
23540;DHT22;11947;50.810;4.394;2023-03-26T03:08:07;9.00;99.90
23540;DHT22;11947;50.810;4.394;2023-03-26T03:10:33;9.00;99.90
23540;DHT22;11947;50.810;4.394;2023-03-26T03:12:59;9.10;99.90
23540;DHT22;11947;50.810;4.394;2023-03-26T03:15:25;9.10;99.90
23540;DHT22;11947;50.810;4.394;2023-03-26T03:17:51;9.30;99.90
23540;DHT22;11947;50.810;4.394;2023-03-26T03:20:17;9.10;99.90
23540;DHT22;11947;50.810;4.394;2023-03-26T03:22:42;9.00;99.90
23540;DHT22;11947;50.810;4.394;2023-03-26T03:25:09;9.00;99.90
23540;DHT22;11947;50.810;4.394;2023-03-26T03:27:42;8.90;99.90
23540;DHT22;11947;50.810;4.394;2023-03-26T03:30:09;8.90;99.90
23540;DHT22;11947;50.810;4.394;2023-03-26T03:32:35;8.90;99.90
23540;DHT22;11947;50.810;4.394;2023-03-26T03:35:01;9.10;99.90
23540;DHT22;11947;50.810;4.394;2023-03-26T03:37:27;8.90;99.90
23540;DHT22;11947;50.810;4.394;2023-03-26T03:39:52;8.90;99.90
23540;DHT22;11947;50.810;4.394;2023-03-26T03:42:18;9.00;99.90
23540;DHT22;11947;50.810;4.394;2023-03-26T03:44:43;8.90;99.90
23540;DHT22;11947;50.810;4.394;2023-03-26T03:47:09;8.70;99.90
23540;DHT22;11947;50.810;4.394;2023-03-26T03:49:40;8.80;99.90
23540;DHT22;11947;50.810;4.394;2023-03-26T03:52:06;8.80;99.90
23540;DHT22;11947;50.810;4.394;2023-03-26T03:54:32;8.80;99.90
23540;DHT22;11947;50.810;4.394;2023-03-26T03:56:58;8.80;99.90
23540;DHT22;11947;50.810;4.394;2023-03-26T03:59:23;9.00;99.90
23540;DHT22;11947;50.810;4.394;2023-03-26T04:01:49;8.80;99.90
23540;DHT22;11947;50.810;4.394;2023-03-26T04:04:15;9.00;99.90
23540;DHT22;11947;50.810;4.394;2023-03-26T04:06:41;9.10;99.90
23540;DHT22;11947;50.810;4.394;2023-03-26T04:09:07;8.90;99.90
23540;DHT22;11947;50.810;4.394;2023-03-26T04:11:35;8.90;99.90
23540;DHT22;11947;50.810;4.394;2023-03-26T04:14:00;8.90;99.90
23540;DHT22;11947;50.810;4.394;2023-03-26T04:16:26;8.80;99.90
23540;DHT22;11947;50.810;4.394;2023-03-26T04:18:51;8.90;99.90
23540;DHT22;11947;50.810;4.394;2023-03-26T04:21:17;8.80;99.90
23540;DHT22;11947;50.810;4.394;2023-03-26T04:23:43;8.80;99.90
23540;DHT22;11947;50.810;4.394;2023-03-26T04:26:16;8.70;99.90
23540;DHT22;11947;50.810;4.394;2023-03-26T04:28:48;8.90;99.90
23540;DHT22;11947;50.810;4.394;2023-03-26T04:31:19;8.90;99.90
23540;DHT22;11947;50.810;4.394;2023-03-26T04:33:50;9.00;99.90
23540;DHT22;11947;50.810;4.394;2023-03-26T04:36:21;9.00;99.90
23540;DHT22;11947;50.810;4.394;2023-03-26T04:38:47;9.00;99.90
23540;DHT22;11947;50.810;4.394;2023-03-26T04:41:16;9.00;99.90
23540;DHT22;11947;50.810;4.394;2023-03-26T04:43:42;9.00;99.90
23540;DHT22;11947;50.810;4.394;2023-03-26T04:46:12;9.00;99.90
23540;DHT22;11947;50.810;4.394;2023-03-26T04:48:37;9.10;99.90
23540;DHT22;11947;50.810;4.394;2023-03-26T04:51:04;8.90;99.90
23540;DHT22;11947;50.810;4.394;2023-03-26T04:53:31;8.90;99.90
23540;DHT22;11947;50.810;4.394;2023-03-26T04:56:07;8.90;99.90
23540;DHT22;11947;50.810;4.394;2023-03-26T04:58:33;8.90;99.90
23540;DHT22;11947;50.810;4.394;2023-03-26T05:01:00;8.90;99.90
23540;DHT22;11947;50.810;4.394;2023-03-26T05:03:28;8.90;99.90
23540;DHT22;11947;50.810;4.394;2023-03-26T05:06:00;9.00;99.90
23540;DHT22;11947;50.810;4.394;2023-03-26T05:08:26;9.00;99.90
23540;DHT22;11947;50.810;4.394;2023-03-26T05:10:54;8.90;99.90
23540;DHT22;11947;50.810;4.394;2023-03-26T05:13:21;9.00;99.90
23540;DHT22;11947;50.810;4.394;2023-03-26T05:15:46;8.90;99.90
23540;DHT22;11947;50.810;4.394;2023-03-26T05:18:12;8.70;99.90
23540;DHT22;11947;50.810;4.394;2023-03-26T05:20:38;8.70;99.90
23540;DHT22;11947;50.810;4.394;2023-03-26T05:23:04;8.70;99.90
23540;DHT22;11947;50.810;4.394;2023-03-26T05:25:30;8.80;99.90
23540;DHT22;11947;50.810;4.394;2023-03-26T05:27:56;8.50;99.90
23540;DHT22;11947;50.810;4.394;2023-03-26T05:30:22;8.40;99.90
23540;DHT22;11947;50.810;4.394;2023-03-26T05:32:48;8.50;99.90
23540;DHT22;11947;50.810;4.394;2023-03-26T05:35:14;8.60;99.90
23540;DHT22;11947;50.810;4.394;2023-03-26T05:37:44;8.50;99.90
23540;DHT22;11947;50.810;4.394;2023-03-26T05:40:12;8.60;99.90
23540;DHT22;11947;50.810;4.394;2023-03-26T05:42:40;8.50;99.90
23540;DHT22;11947;50.810;4.394;2023-03-26T05:45:08;8.60;99.90
23540;DHT22;11947;50.810;4.394;2023-03-26T05:47:34;8.50;99.90
23540;DHT22;11947;50.810;4.394;2023-03-26T05:50:00;8.60;99.90
23540;DHT22;11947;50.810;4.394;2023-03-26T05:52:26;8.40;99.90
23540;DHT22;11947;50.810;4.394;2023-03-26T05:54:52;8.30;99.90
23540;DHT22;11947;50.810;4.394;2023-03-26T05:57:17;8.20;99.90
23540;DHT22;11947;50.810;4.394;2023-03-26T05:59:43;8.30;99.90
23540;DHT22;11947;50.810;4.394;2023-03-26T06:02:09;8.10;99.90
23540;DHT22;11947;50.810;4.394;2023-03-26T06:04:35;8.00;99.90
23540;DHT22;11947;50.810;4.394;2023-03-26T06:07:06;8.00;99.90
23540;DHT22;11947;50.810;4.394;2023-03-26T06:09:35;8.10;99.90
23540;DHT22;11947;50.810;4.394;2023-03-26T06:12:07;8.20;99.90
23540;DHT22;11947;50.810;4.394;2023-03-26T06:14:32;8.20;99.90
23540;DHT22;11947;50.810;4.394;2023-03-26T06:16:58;8.10;99.90
23540;DHT22;11947;50.810;4.394;2023-03-26T06:19:24;8.00;99.90
23540;DHT22;11947;50.810;4.394;2023-03-26T06:21:49;8.20;99.90
23540;DHT22;11947;50.810;4.394;2023-03-26T06:24:15;8.10;99.90
23540;DHT22;11947;50.810;4.394;2023-03-26T06:26:41;8.10;99.90
23540;DHT22;11947;50.810;4.394;2023-03-26T06:29:07;8.20;99.90
23540;DHT22;11947;50.810;4.394;2023-03-26T06:31:33;8.00;99.90
23540;DHT22;11947;50.810;4.394;2023-03-26T06:33:59;8.20;99.90
23540;DHT22;11947;50.810;4.394;2023-03-26T06:36:24;8.10;99.90
23540;DHT22;11947;50.810;4.394;2023-03-26T06:38:50;8.00;99.90
23540;DHT22;11947;50.810;4.394;2023-03-26T06:41:16;7.70;99.90
23540;DHT22;11947;50.810;4.394;2023-03-26T06:43:41;7.60;99.90
23540;DHT22;11947;50.810;4.394;2023-03-26T06:46:08;7.50;99.90
23540;DHT22;11947;50.810;4.394;2023-03-26T06:48:33;7.40;99.90
23540;DHT22;11947;50.810;4.394;2023-03-26T06:50:59;7.40;99.90
23540;DHT22;11947;50.810;4.394;2023-03-26T06:53:25;7.30;99.90
23540;DHT22;11947;50.810;4.394;2023-03-26T06:55:52;7.40;99.90
23540;DHT22;11947;50.810;4.394;2023-03-26T06:58:18;7.40;99.90
23540;DHT22;11947;50.810;4.394;2023-03-26T07:00:44;7.50;99.90
23540;DHT22;11947;50.810;4.394;2023-03-26T07:03:10;7.60;99.90
23540;DHT22;11947;50.810;4.394;2023-03-26T07:05:37;7.50;99.90
23540;DHT22;11947;50.810;4.394;2023-03-26T07:08:03;7.40;99.90
23540;DHT22;11947;50.810;4.394;2023-03-26T07:10:28;7.60;99.90
23540;DHT22;11947;50.810;4.394;2023-03-26T07:12:54;7.60;99.90
23540;DHT22;11947;50.810;4.394;2023-03-26T07:15:20;7.60;99.90
23540;DHT22;11947;50.810;4.394;2023-03-26T07:17:45;7.60;99.90
23540;DHT22;11947;50.810;4.394;2023-03-26T07:20:11;7.50;99.90
23540;DHT22;11947;50.810;4.394;2023-03-26T07:22:37;7.40;99.90
23540;DHT22;11947;50.810;4.394;2023-03-26T07:25:03;7.30;99.90
23540;DHT22;11947;50.810;4.394;2023-03-26T07:30:14;7.40;99.90
23540;DHT22;11947;50.810;4.394;2023-03-26T07:32:54;7.40;99.90
23540;DHT22;11947;50.810;4.394;2023-03-26T07:38:23;7.50;99.90
23540;DHT22;11947;50.810;4.394;2023-03-26T07:41:09;7.60;99.90
23540;DHT22;11947;50.810;4.394;2023-03-26T07:46:13;7.50;99.90
23540;DHT22;11947;50.810;4.394;2023-03-26T07:48:43;7.40;99.90
23540;DHT22;11947;50.810;4.394;2023-03-26T07:51:12;7.40;99.90
23540;DHT22;11947;50.810;4.394;2023-03-26T07:53:38;7.40;99.90
23540;DHT22;11947;50.810;4.394;2023-03-26T07:56:33;7.30;99.90
23540;DHT22;11947;50.810;4.394;2023-03-26T08:07:14;7.70;99.90
23540;DHT22;11947;50.810;4.394;2023-03-26T08:09:58;7.70;99.90
23540;DHT22;11947;50.810;4.394;2023-03-26T08:12:49;7.60;99.90
23540;DHT22;11947;50.810;4.394;2023-03-26T08:15:48;7.80;99.90
23540;DHT22;11947;50.810;4.394;2023-03-26T08:18:48;7.70;99.90
23540;DHT22;11947;50.810;4.394;2023-03-26T08:21:24;7.90;99.90
23540;DHT22;11947;50.810;4.394;2023-03-26T08:30:09;7.90;99.90
23540;DHT22;11947;50.810;4.394;2023-03-26T08:32:39;8.00;99.90
23540;DHT22;11947;50.810;4.394;2023-03-26T08:35:05;8.10;99.90
23540;DHT22;11947;50.810;4.394;2023-03-26T08:37:31;8.20;99.90
23540;DHT22;11947;50.810;4.394;2023-03-26T08:39:57;8.20;99.90
23540;DHT22;11947;50.810;4.394;2023-03-26T08:45:22;8.10;99.90
23540;DHT22;11947;50.810;4.394;2023-03-26T08:50:34;8.20;99.90
23540;DHT22;11947;50.810;4.394;2023-03-26T08:53:12;8.10;99.90
23540;DHT22;11947;50.810;4.394;2023-03-26T09:00:02;8.30;99.90
23540;DHT22;11947;50.810;4.394;2023-03-26T09:02:15;8.20;99.90
23540;DHT22;11947;50.810;4.394;2023-03-26T09:10:15;8.10;99.90
23540;DHT22;11947;50.810;4.394;2023-03-26T09:19:16;8.20;99.90
23540;DHT22;11947;50.810;4.394;2023-03-26T09:24:40;8.30;99.90
23540;DHT22;11947;50.810;4.394;2023-03-26T09:27:38;8.20;99.90
23540;DHT22;11947;50.810;4.394;2023-03-26T09:30:31;8.20;99.90
23540;DHT22;11947;50.810;4.394;2023-03-26T09:33:15;8.10;99.90
23540;DHT22;11947;50.810;4.394;2023-03-26T09:41:13;8.00;99.90
23540;DHT22;11947;50.810;4.394;2023-03-26T10:00:59;8.40;99.90
23540;DHT22;11947;50.810;4.394;2023-03-26T10:28:31;8.60;99.90
23540;DHT22;11947;50.810;4.394;2023-03-26T10:33:41;8.40;99.90
23540;DHT22;11947;50.810;4.394;2023-03-26T10:36:26;8.50;99.90
23540;DHT22;11947;50.810;4.394;2023-03-26T10:53:02;8.80;99.90
23540;DHT22;11947;50.810;4.394;2023-03-26T10:55:43;8.90;99.90
23540;DHT22;11947;50.810;4.394;2023-03-26T10:58:22;9.00;99.90
23540;DHT22;11947;50.810;4.394;2023-03-26T11:01:04;8.90;99.90
23540;DHT22;11947;50.810;4.394;2023-03-26T11:03:47;9.00;99.90
23540;DHT22;11947;50.810;4.394;2023-03-26T11:06:36;9.00;99.90
23540;DHT22;11947;50.810;4.394;2023-03-26T11:09:43;9.00;99.90
23540;DHT22;11947;50.810;4.394;2023-03-26T11:15:36;9.00;99.90
23540;DHT22;11947;50.810;4.394;2023-03-26T11:18:52;9.10;99.90
23540;DHT22;11947;50.810;4.394;2023-03-26T11:27:00;9.10;99.90
23540;DHT22;11947;50.810;4.394;2023-03-26T11:29:43;9.20;99.90
23540;DHT22;11947;50.810;4.394;2023-03-26T11:32:10;9.30;99.90
23540;DHT22;11947;50.810;4.394;2023-03-26T11:34:40;9.50;99.90
23540;DHT22;11947;50.810;4.394;2023-03-26T11:37:45;9.40;99.90
23540;DHT22;11947;50.810;4.394;2023-03-26T11:40:37;9.40;99.90
23540;DHT22;11947;50.810;4.394;2023-03-26T11:43:07;9.30;99.90
23540;DHT22;11947;50.810;4.394;2023-03-26T11:45:46;9.40;99.90
23540;DHT22;11947;50.810;4.394;2023-03-26T11:48:25;9.50;99.90
23540;DHT22;11947;50.810;4.394;2023-03-26T11:50:58;9.50;99.90
23540;DHT22;11947;50.810;4.394;2023-03-26T11:53:32;9.40;99.90
23540;DHT22;11947;50.810;4.394;2023-03-26T11:58:33;9.40;99.90
23540;DHT22;11947;50.810;4.394;2023-03-26T12:01:12;9.30;99.90
23540;DHT22;11947;50.810;4.394;2023-03-26T12:03:39;9.40;99.90
23540;DHT22;11947;50.810;4.394;2023-03-26T12:06:21;9.20;99.90
23540;DHT22;11947;50.810;4.394;2023-03-26T12:08:48;9.40;99.90
23540;DHT22;11947;50.810;4.394;2023-03-26T12:11:14;9.60;99.90
23540;DHT22;11947;50.810;4.394;2023-03-26T12:13:44;9.50;99.90
23540;DHT22;11947;50.810;4.394;2023-03-26T12:16:18;9.60;99.90
23540;DHT22;11947;50.810;4.394;2023-03-26T12:18:45;9.70;99.90
23540;DHT22;11947;50.810;4.394;2023-03-26T12:21:15;9.80;99.90
23540;DHT22;11947;50.810;4.394;2023-03-26T12:26:37;9.60;99.90
23540;DHT22;11947;50.810;4.394;2023-03-26T12:29:11;9.50;99.90
23540;DHT22;11947;50.810;4.394;2023-03-26T12:32:01;9.60;99.90
23540;DHT22;11947;50.810;4.394;2023-03-26T12:34:35;9.70;99.90
23540;DHT22;11947;50.810;4.394;2023-03-26T12:37:04;9.90;99.90
23540;DHT22;11947;50.810;4.394;2023-03-26T12:39:36;9.90;99.90
23540;DHT22;11947;50.810;4.394;2023-03-26T12:42:04;9.90;99.90
23540;DHT22;11947;50.810;4.394;2023-03-26T12:44:44;9.80;99.90
23540;DHT22;11947;50.810;4.394;2023-03-26T12:47:14;9.80;99.90
23540;DHT22;11947;50.810;4.394;2023-03-26T12:49:43;9.90;99.90
23540;DHT22;11947;50.810;4.394;2023-03-26T12:55:00;10.10;99.90
23540;DHT22;11947;50.810;4.394;2023-03-26T13:03:10;10.20;99.90
23540;DHT22;11947;50.810;4.394;2023-03-26T13:08:52;10.50;99.90
23540;DHT22;11947;50.810;4.394;2023-03-26T13:14:12;10.50;99.90
23540;DHT22;11947;50.810;4.394;2023-03-26T13:19:38;10.40;99.90
23540;DHT22;11947;50.810;4.394;2023-03-26T13:22:31;10.60;99.90
23540;DHT22;11947;50.810;4.394;2023-03-26T13:35:38;10.60;99.90
23540;DHT22;11947;50.810;4.394;2023-03-26T13:41:00;11.00;99.90
23540;DHT22;11947;50.810;4.394;2023-03-26T13:43:44;11.00;99.90
23540;DHT22;11947;50.810;4.394;2023-03-26T13:46:42;10.90;99.90
23540;DHT22;11947;50.810;4.394;2023-03-26T13:49:14;10.80;99.90
23540;DHT22;11947;50.810;4.394;2023-03-26T13:54:14;10.50;99.90
23540;DHT22;11947;50.810;4.394;2023-03-26T13:56:53;10.60;99.90
23540;DHT22;11947;50.810;4.394;2023-03-26T13:59:28;10.60;99.90
23540;DHT22;11947;50.810;4.394;2023-03-26T14:02:00;10.30;99.90
23540;DHT22;11947;50.810;4.394;2023-03-26T14:04:29;10.20;99.90
23540;DHT22;11947;50.810;4.394;2023-03-26T14:07:07;10.10;99.90
23540;DHT22;11947;50.810;4.394;2023-03-26T14:09:43;10.20;99.90
23540;DHT22;11947;50.810;4.394;2023-03-26T14:12:23;10.20;99.90
23540;DHT22;11947;50.810;4.394;2023-03-26T14:17:50;10.10;99.90
23540;DHT22;11947;50.810;4.394;2023-03-26T14:37:22;9.70;99.90
23540;DHT22;11947;50.810;4.394;2023-03-26T14:43:14;9.60;99.90
23540;DHT22;11947;50.810;4.394;2023-03-26T14:51:22;9.60;99.90
23540;DHT22;11947;50.810;4.394;2023-03-26T14:53:55;9.60;99.90
23540;DHT22;11947;50.810;4.394;2023-03-26T14:59:03;9.60;99.90
23540;DHT22;11947;50.810;4.394;2023-03-26T15:21:06;10.10;99.90
23540;DHT22;11947;50.810;4.394;2023-03-26T15:32:48;10.10;99.90
23540;DHT22;11947;50.810;4.394;2023-03-26T15:41:23;10.00;99.90
23540;DHT22;11947;50.810;4.394;2023-03-26T15:49:40;9.90;99.90
23540;DHT22;11947;50.810;4.394;2023-03-26T15:55:21;10.00;99.90
23540;DHT22;11947;50.810;4.394;2023-03-26T15:58:14;10.10;99.90
23540;DHT22;11947;50.810;4.394;2023-03-26T16:07:02;10.00;99.90
23540;DHT22;11947;50.810;4.394;2023-03-26T16:14:42;9.60;99.90
23540;DHT22;11947;50.810;4.394;2023-03-26T16:17:16;9.50;99.90
23540;DHT22;11947;50.810;4.394;2023-03-26T16:22:38;9.30;99.90
23540;DHT22;11947;50.810;4.394;2023-03-26T16:30:36;9.20;99.90
23540;DHT22;11947;50.810;4.394;2023-03-26T16:33:22;9.10;99.90
23540;DHT22;11947;50.810;4.394;2023-03-26T16:36:23;9.20;99.90
23540;DHT22;11947;50.810;4.394;2023-03-26T16:41:25;8.90;99.90
23540;DHT22;11947;50.810;4.394;2023-03-26T16:46:33;9.00;99.90
23540;DHT22;11947;50.810;4.394;2023-03-26T16:52:02;8.90;99.90
23540;DHT22;11947;50.810;4.394;2023-03-26T16:54:50;9.00;99.90
23540;DHT22;11947;50.810;4.394;2023-03-26T16:57:23;9.00;99.90
23540;DHT22;11947;50.810;4.394;2023-03-26T17:05:21;9.00;99.90
23540;DHT22;11947;50.810;4.394;2023-03-26T17:08:19;9.00;99.90
23540;DHT22;11947;50.810;4.394;2023-03-26T17:11:20;9.00;99.90
23540;DHT22;11947;50.810;4.394;2023-03-26T17:14:09;9.00;99.90
23540;DHT22;11947;50.810;4.394;2023-03-26T17:16:48;8.90;99.90
23540;DHT22;11947;50.810;4.394;2023-03-26T17:19:48;8.70;99.90
23540;DHT22;11947;50.810;4.394;2023-03-26T17:22:36;8.70;99.90
23540;DHT22;11947;50.810;4.394;2023-03-26T17:33:09;8.70;99.90
23540;DHT22;11947;50.810;4.394;2023-03-26T17:35:48;8.80;99.90
23540;DHT22;11947;50.810;4.394;2023-03-26T17:40:57;8.70;99.90
23540;DHT22;11947;50.810;4.394;2023-03-26T17:43:51;8.70;99.90
23540;DHT22;11947;50.810;4.394;2023-03-26T17:46:36;8.60;99.90
23540;DHT22;11947;50.810;4.394;2023-03-26T17:49:20;8.40;99.90
23540;DHT22;11947;50.810;4.394;2023-03-26T17:51:53;8.30;99.90
23540;DHT22;11947;50.810;4.394;2023-03-26T17:54:33;8.30;99.90
23540;DHT22;11947;50.810;4.394;2023-03-26T17:57:04;8.30;99.90
23540;DHT22;11947;50.810;4.394;2023-03-26T17:59:32;8.20;99.90
23540;DHT22;11947;50.810;4.394;2023-03-26T18:01:59;8.20;99.90
23540;DHT22;11947;50.810;4.394;2023-03-26T18:04:39;8.10;99.90
23540;DHT22;11947;50.810;4.394;2023-03-26T18:18:16;8.20;99.90
23540;DHT22;11947;50.810;4.394;2023-03-26T18:20:45;8.10;99.90
23540;DHT22;11947;50.810;4.394;2023-03-26T18:23:25;8.00;99.90
23540;DHT22;11947;50.810;4.394;2023-03-26T18:26:20;8.00;99.90
23540;DHT22;11947;50.810;4.394;2023-03-26T18:28:52;8.00;99.90
23540;DHT22;11947;50.810;4.394;2023-03-26T18:31:30;8.00;99.90
23540;DHT22;11947;50.810;4.394;2023-03-26T18:33:58;7.90;99.90
23540;DHT22;11947;50.810;4.394;2023-03-26T18:36:30;8.00;99.90
23540;DHT22;11947;50.810;4.394;2023-03-26T18:38:59;7.80;99.90
23540;DHT22;11947;50.810;4.394;2023-03-26T18:41:33;7.80;99.90
23540;DHT22;11947;50.810;4.394;2023-03-26T18:44:04;8.00;99.90
23540;DHT22;11947;50.810;4.394;2023-03-26T18:46:33;7.80;99.90
23540;DHT22;11947;50.810;4.394;2023-03-26T18:49:00;7.90;99.90
23540;DHT22;11947;50.810;4.394;2023-03-26T18:51:27;7.70;99.90
23540;DHT22;11947;50.810;4.394;2023-03-26T18:54:02;7.70;99.90
23540;DHT22;11947;50.810;4.394;2023-03-26T18:56:36;7.60;99.90
23540;DHT22;11947;50.810;4.394;2023-03-26T18:59:21;7.80;99.90
23540;DHT22;11947;50.810;4.394;2023-03-26T19:01:54;7.60;99.90
23540;DHT22;11947;50.810;4.394;2023-03-26T19:04:23;7.60;99.90
23540;DHT22;11947;50.810;4.394;2023-03-26T19:06:49;7.60;99.90
23540;DHT22;11947;50.810;4.394;2023-03-26T19:09:20;7.50;99.90
23540;DHT22;11947;50.810;4.394;2023-03-26T19:11:48;7.50;99.90
23540;DHT22;11947;50.810;4.394;2023-03-26T19:14:19;7.40;99.90
23540;DHT22;11947;50.810;4.394;2023-03-26T19:16:49;7.40;99.90
23540;DHT22;11947;50.810;4.394;2023-03-26T19:19:21;7.50;99.90
23540;DHT22;11947;50.810;4.394;2023-03-26T19:21:50;7.60;99.90
23540;DHT22;11947;50.810;4.394;2023-03-26T19:24:17;7.40;99.90
23540;DHT22;11947;50.810;4.394;2023-03-26T19:26:44;7.30;99.90
23540;DHT22;11947;50.810;4.394;2023-03-26T19:29:18;7.30;99.90
23540;DHT22;11947;50.810;4.394;2023-03-26T19:31:49;7.50;99.90
23540;DHT22;11947;50.810;4.394;2023-03-26T19:37:01;7.30;99.90
23540;DHT22;11947;50.810;4.394;2023-03-26T19:42:01;7.20;99.90
23540;DHT22;11947;50.810;4.394;2023-03-26T19:44:29;7.10;99.90
23540;DHT22;11947;50.810;4.394;2023-03-26T19:47:04;7.10;99.90
23540;DHT22;11947;50.810;4.394;2023-03-26T19:49:33;7.00;99.90
23540;DHT22;11947;50.810;4.394;2023-03-26T19:52:37;7.10;99.90
23540;DHT22;11947;50.810;4.394;2023-03-26T19:55:22;7.00;99.90
23540;DHT22;11947;50.810;4.394;2023-03-26T19:57:51;7.10;99.90
23540;DHT22;11947;50.810;4.394;2023-03-26T20:00:17;7.10;99.90
23540;DHT22;11947;50.810;4.394;2023-03-26T20:02:43;7.10;99.90
23540;DHT22;11947;50.810;4.394;2023-03-26T20:05:22;7.00;99.90
23540;DHT22;11947;50.810;4.394;2023-03-26T20:07:48;7.10;99.90
23540;DHT22;11947;50.810;4.394;2023-03-26T20:10:14;7.20;99.90
23540;DHT22;11947;50.810;4.394;2023-03-26T20:12:40;7.00;99.90
23540;DHT22;11947;50.810;4.394;2023-03-26T20:15:24;7.20;99.90
23540;DHT22;11947;50.810;4.394;2023-03-26T20:17:50;7.20;99.90
23540;DHT22;11947;50.810;4.394;2023-03-26T20:20:20;7.00;99.90
23540;DHT22;11947;50.810;4.394;2023-03-26T20:22:48;6.80;99.90
23540;DHT22;11947;50.810;4.394;2023-03-26T20:25:22;6.70;99.90
23540;DHT22;11947;50.810;4.394;2023-03-26T20:27:48;6.80;99.90
23540;DHT22;11947;50.810;4.394;2023-03-26T20:30:15;6.80;99.90
23540;DHT22;11947;50.810;4.394;2023-03-26T20:32:41;6.60;99.90
23540;DHT22;11947;50.810;4.394;2023-03-26T20:35:21;6.70;99.90
23540;DHT22;11947;50.810;4.394;2023-03-26T20:37:48;6.70;99.90
23540;DHT22;11947;50.810;4.394;2023-03-26T20:40:14;6.70;99.90
23540;DHT22;11947;50.810;4.394;2023-03-26T20:42:41;6.70;99.90
23540;DHT22;11947;50.810;4.394;2023-03-26T20:45:21;6.70;99.90
23540;DHT22;11947;50.810;4.394;2023-03-26T20:47:48;6.60;99.90
23540;DHT22;11947;50.810;4.394;2023-03-26T20:50:16;6.60;99.90
23540;DHT22;11947;50.810;4.394;2023-03-26T20:52:42;6.60;99.90
23540;DHT22;11947;50.810;4.394;2023-03-26T20:55:26;6.50;99.90
23540;DHT22;11947;50.810;4.394;2023-03-26T20:57:53;6.40;99.90
23540;DHT22;11947;50.810;4.394;2023-03-26T21:00:19;6.30;99.90
23540;DHT22;11947;50.810;4.394;2023-03-26T21:02:53;6.50;99.90
23540;DHT22;11947;50.810;4.394;2023-03-26T21:05:20;6.50;99.90
23540;DHT22;11947;50.810;4.394;2023-03-26T21:07:59;6.50;99.90
23540;DHT22;11947;50.810;4.394;2023-03-26T21:10:28;6.50;99.90
23540;DHT22;11947;50.810;4.394;2023-03-26T21:13:06;6.40;99.90
23540;DHT22;11947;50.810;4.394;2023-03-26T21:15:33;6.50;99.90
23540;DHT22;11947;50.810;4.394;2023-03-26T21:17:59;6.50;99.90
23540;DHT22;11947;50.810;4.394;2023-03-26T21:20:26;6.40;99.90
23540;DHT22;11947;50.810;4.394;2023-03-26T21:28:46;6.40;99.90
23540;DHT22;11947;50.810;4.394;2023-03-26T21:31:15;6.40;99.90
23540;DHT22;11947;50.810;4.394;2023-03-26T21:33:45;6.30;99.90
23540;DHT22;11947;50.810;4.394;2023-03-26T21:36:12;6.40;99.90
23540;DHT22;11947;50.810;4.394;2023-03-26T21:38:38;6.50;99.90
23540;DHT22;11947;50.810;4.394;2023-03-26T21:41:04;6.50;99.90
23540;DHT22;11947;50.810;4.394;2023-03-26T21:43:30;6.40;99.90